Time;durP1;ratioP1;P1;durP2;ratioP2;P2;SDS_P1;SDS_P2;PMS_P1;PMS_P2;Temp;Humidity;BMP_temperature;BMP_pressure;BME280_temperature;BME280_humidity;BME280_pressure;Samples;Min_cycle;Max_cycle;Signal;HPM_P1;HPM_P2
2021/05/02 00:01:15;;;;;;;;;;;;;;;23.41;27.51;99485.03;4434322;32;20300;-55
2021/05/02 00:03:41;;;;;;;;;;;;;;;23.41;27.44;99491.22;4428173;32;19958;-56
2021/05/02 00:06:08;;;;;;;;;;;;;;;23.42;27.42;99489.47;4435374;32;19975;-57
2021/05/02 00:08:33;;;;;;;;;;;;;;;23.38;27.37;99485.06;4434426;32;19985;-54
2021/05/02 00:10:59;;;;;;;;;;;;;;;23.38;27.35;99487.72;4434927;32;19954;-56
2021/05/02 00:13:25;;;;;;;;;;;;;;;23.36;27.42;99486.88;4429197;32;19958;-57
2021/05/02 00:15:51;;;;;;;;;;;;;;;23.35;27.47;99490.44;4419809;32;20050;-57
2021/05/02 00:18:17;;;;;;;;;;;;;;;23.34;27.39;99480.72;4423813;32;19954;-56
2021/05/02 00:20:43;;;;;;;;;;;;;;;23.34;27.30;99488.69;4434461;32;20019;-57
2021/05/02 00:23:09;;;;;;;;;;;;;;;23.34;27.29;99488.69;4430945;32;20373;-56
2021/05/02 00:25:35;;;;;;;;;;;;;;;23.31;27.36;99489.59;4419833;32;19991;-56
2021/05/02 00:28:01;;;;;;;;;;;;;;;23.27;27.40;99496.75;4421596;32;19973;-56
2021/05/02 00:30:27;;;;;;;;;;;;;;;23.25;27.40;99492.31;4434462;32;20005;-56
2021/05/02 00:32:53;;;;;;;;;;;;;;;23.23;27.39;99497.63;4434199;32;20052;-56
2021/05/02 00:35:19;;;;;;;;;;;;;;;23.21;27.36;99507.41;4419651;32;19982;-57
2021/05/02 00:37:45;;;;;;;;;;;;;;;23.20;27.32;99503.00;4418470;32;20354;-56
2021/05/02 00:40:11;;;;;;;;;;;;;;;23.17;27.46;99503.91;4433087;32;19968;-56
2021/05/02 00:42:36;;;;;;;;;;;;;;;23.13;27.38;99496.00;4435255;32;19975;-57
2021/05/02 00:45:02;;;;;;;;;;;;;;;23.14;27.37;99498.66;4421458;32;19946;-55
2021/05/02 00:47:28;;;;;;;;;;;;;;;23.16;27.36;99498.63;4419488;32;19962;-54
2021/05/02 00:49:54;;;;;;;;;;;;;;;23.14;27.51;99503.06;4430607;32;19962;-57
2021/05/02 00:52:20;;;;;;;;;;;;;;;23.09;27.50;99507.56;4433245;32;20353;-57
2021/05/02 00:54:46;;;;;;;;;;;;;;;23.10;27.38;99511.97;4424176;32;19992;-56
2021/05/02 00:57:12;;;;;;;;;;;;;;;23.08;27.40;99513.78;4419147;32;19962;-56
2021/05/02 00:59:38;;;;;;;;;;;;;;;23.08;27.32;99513.78;4427040;32;19958;-57
2021/05/02 01:02:04;;;;;;;;;;;;;;;23.07;27.30;99517.34;4433840;32;20014;-57
2021/05/02 01:04:30;;;;;;;;;;;;;;;23.06;27.33;99527.06;4427331;32;19968;-56
2021/05/02 01:06:56;;;;;;;;;;;;;;;23.05;27.40;99524.44;4418881;32;19962;-55
2021/05/02 01:09:22;;;;;;;;;;;;;;;23.04;27.56;99517.38;4424250;32;19946;-56
2021/05/02 01:11:48;;;;;;;;;;;;;;;23.09;27.44;99521.75;4434707;32;19965;-55
2021/05/02 01:14:14;;;;;;;;;;;;;;;22.99;27.59;99520.94;4429647;32;20050;-57
2021/05/02 01:16:39;;;;;;;;;;;;;;;22.97;27.49;99521.87;4418536;32;19938;-57
2021/05/02 01:19:05;;;;;;;;;;;;;;;22.95;27.53;99527.22;4420802;32;19953;-56
2021/05/02 01:21:31;;;;;;;;;;;;;;;22.95;27.61;99521.91;4432518;32;20001;-55
2021/05/02 01:23:57;;;;;;;;;;;;;;;22.94;27.39;99528.09;4431639;32;20004;-54
2021/05/02 01:26:23;;;;;;;;;;;;;;;22.95;27.53;99532.50;4419075;32;20084;-55
2021/05/02 01:28:49;;;;;;;;;;;;;;;22.92;27.48;99529.91;4418521;32;20311;-56
2021/05/02 01:31:15;;;;;;;;;;;;;;;22.95;27.41;99529.84;4429913;32;19977;-56
2021/05/02 01:33:41;;;;;;;;;;;;;;;22.93;27.42;99531.66;4432663;32;19954;-55
2021/05/02 01:36:07;;;;;;;;;;;;;;;22.92;27.44;99534.31;4418487;32;20699;-56
2021/05/02 01:38:33;;;;;;;;;;;;;;;22.90;27.54;99536.97;4416529;32;19993;-55
2021/05/02 01:40:59;;;;;;;;;;;;;;;22.91;27.39;99543.19;4429726;32;19969;-55
2021/05/02 01:43:25;;;;;;;;;;;;;;;22.89;27.40;99545.84;4432519;32;19976;-55
2021/05/02 01:45:51;;;;;;;;;;;;;;;22.91;27.52;99548.50;4421386;32;20583;-53
2021/05/02 01:48:16;;;;;;;;;;;;;;;22.88;27.56;99549.41;4416878;32;19967;-55
2021/05/02 01:50:42;;;;;;;;;;;;;;;22.85;27.52;99554.75;4427571;32;19957;-56
2021/05/02 01:53:09;;;;;;;;;;;;;;;22.86;27.53;99548.53;4430564;32;20005;-55
2021/05/02 01:55:34;;;;;;;;;;;;;;;22.83;27.58;99548.59;4423475;32;19976;-56
2021/05/02 01:58:00;;;;;;;;;;;;;;;22.84;27.59;99547.69;4416899;32;19969;-57
2021/05/02 02:00:26;;;;;;;;;;;;;;;22.85;27.54;99550.34;4423857;32;19996;-56
2021/05/02 02:02:52;;;;;;;;;;;;;;;22.84;27.40;99553.00;4431622;32;20007;-57
2021/05/02 02:05:18;;;;;;;;;;;;;;;22.83;27.57;99554.75;4427232;32;20362;-56
2021/05/02 02:07:44;;;;;;;;;;;;;;;22.83;27.49;99553.88;4417778;32;20026;-56
2021/05/02 02:10:10;;;;;;;;;;;;;;;22.84;27.45;99560.97;4422224;32;19958;-55
2021/05/02 02:12:35;;;;;;;;;;;;;;;22.78;27.54;99561.00;4434060;32;20334;-56
2021/05/02 02:15:01;;;;;;;;;;;;;;;22.76;27.52;99563.69;4430273;32;20375;-57
2021/05/02 02:17:27;;;;;;;;;;;;;;;22.83;27.49;99567.16;4418230;32;19996;-56
2021/05/02 02:19:54;;;;;;;;;;;;;;;22.78;27.59;99563.66;4419157;32;20000;-57
2021/05/02 02:22:19;;;;;;;;;;;;;;;22.77;27.62;99572.53;4431742;32;19983;-54
2021/05/02 02:24:45;;;;;;;;;;;;;;;22.76;27.54;99581.37;4432789;32;20346;-57
2021/05/02 02:27:11;;;;;;;;;;;;;;;22.76;27.49;99576.06;4417877;32;19966;-55
2021/05/02 02:29:37;;;;;;;;;;;;;;;22.75;27.59;99580.53;4417766;32;19954;-54
2021/05/02 02:32:04;;;;;;;;;;;;;;;22.76;27.53;99576.06;4431681;32;20030;-57
2021/05/02 02:34:30;;;;;;;;;;;;;;;22.73;27.48;99575.22;4433115;32;19969;-57
2021/05/02 02:36:56;;;;;;;;;;;;;;;22.77;27.45;99580.47;4419992;32;19958;-55
2021/05/02 02:39:22;;;;;;;;;;;;;;;22.76;27.52;99584.03;4416901;32;19951;-56
2021/05/02 02:41:48;;;;;;;;;;;;;;;22.77;27.55;99583.13;4429623;32;19964;-57
2021/05/02 02:44:13;;;;;;;;;;;;;;;22.72;27.56;99585.88;4433100;32;19987;-57
2021/05/02 02:46:39;;;;;;;;;;;;;;;22.68;27.55;99587.66;4422742;32;19983;-54
2021/05/02 02:49:05;;;;;;;;;;;;;;;22.69;27.63;99592.06;4416712;32;20319;-57
2021/05/02 02:51:31;;;;;;;;;;;;;;;22.69;27.43;99586.78;4426547;32;19957;-57
2021/05/02 02:53:57;;;;;;;;;;;;;;;22.67;27.52;99591.22;4432660;32;20313;-58
2021/05/02 02:56:23;;;;;;;;;;;;;;;22.69;27.51;99591.19;4425011;32;19996;-56
2021/05/02 02:58:49;;;;;;;;;;;;;;;22.72;27.43;99597.34;4417158;32;19969;-54
2021/05/02 03:01:15;;;;;;;;;;;;;;;22.71;27.42;99595.59;4423531;32;19971;-57
2021/05/02 03:03:41;;;;;;;;;;;;;;;22.65;27.56;99598.28;4432445;32;19992;-56
2021/05/02 03:06:07;;;;;;;;;;;;;;;22.64;27.56;99604.50;4427290;32;19958;-57
2021/05/02 03:08:32;;;;;;;;;;;;;;;22.62;27.57;99595.66;4416609;32;20000;-56
2021/05/02 03:10:58;;;;;;;;;;;;;;;22.63;27.58;99604.53;4421072;32;19968;-55
2021/05/02 03:13:24;;;;;;;;;;;;;;;22.63;27.47;99608.03;4432446;32;19961;-54
2021/05/02 03:15:50;;;;;;;;;;;;;;;22.58;27.43;99607.22;4430548;32;19968;-55
2021/05/02 03:18:16;;;;;;;;;;;;;;;22.55;27.58;99602.81;4416694;32;19976;-56
2021/05/02 03:20:42;;;;;;;;;;;;;;;22.52;27.86;99605.50;4417871;32;19958;-57
2021/05/02 03:23:08;;;;;;;;;;;;;;;22.54;27.83;99608.16;4431120;32;20016;-57
2021/05/02 03:25:34;;;;;;;;;;;;;;;22.51;27.85;99608.16;4433130;32;19949;-54
2021/05/02 03:27:59;;;;;;;;;;;;;;;22.51;27.77;99613.47;4418343;32;19964;-57
2021/05/02 03:30:25;;;;;;;;;;;;;;;22.50;27.65;99622.31;4416766;32;19953;-56
2021/05/02 03:32:51;;;;;;;;;;;;;;;22.51;27.74;99624.06;4429429;32;20350;-55
2021/05/02 03:35:17;;;;;;;;;;;;;;;22.55;27.68;99620.53;4432454;32;19966;-56
2021/05/02 03:37:43;;;;;;;;;;;;;;;22.57;27.52;99624.03;4420368;32;19974;-56
2021/05/02 03:40:09;;;;;;;;;;;;;;;22.57;27.53;99630.19;4416658;32;19997;-56
2021/05/02 03:42:35;;;;;;;;;;;;;;;22.57;27.54;99638.16;4425201;32;20360;-55
2021/05/02 03:45:01;;;;;;;;;;;;;;;22.54;27.62;99634.69;4424668;32;19938;-57
2021/05/02 03:47:26;;;;;;;;;;;;;;;22.56;27.54;99640.84;4425088;32;19942;-56
2021/05/02 03:49:52;;;;;;;;;;;;;;;22.53;27.63;99648.81;4423407;32;19954;-54
2021/05/02 03:52:18;;;;;;;;;;;;;;;22.49;27.66;99652.41;4424894;32;19958;-57
2021/05/02 03:54:44;;;;;;;;;;;;;;;22.51;27.66;99651.50;4425642;32;20349;-57
2021/05/02 03:57:10;;;;;;;;;;;;;;;22.52;27.80;99657.66;4424939;32;20327;-57
2021/05/02 03:59:37;;;;;;;;;;;;;;;22.46;27.72;99656.81;4425620;32;19951;-57
2021/05/02 04:02:02;;;;;;;;;;;;;;;22.48;27.68;99661.22;4423290;32;19988;-55
2021/05/02 04:04:28;;;;;;;;;;;;;;;22.44;27.72;99666.56;4425282;32;19942;-57
2021/05/02 04:06:54;;;;;;;;;;;;;;;22.52;27.74;99662.97;4424535;32;19938;-56
2021/05/02 04:09:20;;;;;;;;;;;;;;;22.44;27.72;99669.22;4411285;32;19991;-54
2021/05/02 04:11:46;;;;;;;;;;;;;;;22.48;27.71;99671.81;4416129;32;19961;-57
2021/05/02 04:14:12;;;;;;;;;;;;;;;22.42;27.82;99663.03;4409455;32;19981;-57
2021/05/02 04:16:38;;;;;;;;;;;;;;;22.39;27.75;99671.00;4409968;32;19950;-56
2021/05/02 04:19:04;;;;;;;;;;;;;;;22.43;27.70;99680.72;4409119;32;19962;-53
2021/05/02 04:21:30;;;;;;;;;;;;;;;22.49;27.59;99670.97;4411948;32;19950;-57
2021/05/02 04:23:56;;;;;;;;;;;;;;;22.46;27.64;99675.38;4413510;32;19961;-56
2021/05/02 04:26:22;;;;;;;;;;;;;;;22.54;27.44;99683.31;4413082;32;20028;-57
2021/05/02 04:28:48;;;;;;;;;;;;;;;22.48;27.52;99686.03;4412352;32;19954;-57
2021/05/02 04:31:13;;;;;;;;;;;;;;;22.44;27.62;99687.78;4412472;32;19995;-57
2021/05/02 04:33:39;;;;;;;;;;;;;;;22.45;27.55;99689.53;4412858;32;20357;-57
2021/05/02 04:36:05;;;;;;;;;;;;;;;22.46;27.55;99691.28;4411244;32;20035;-57
2021/05/02 04:38:31;;;;;;;;;;;;;;;22.42;27.57;99693.97;4413316;32;19976;-56
2021/05/02 04:40:57;;;;;;;;;;;;;;;22.40;27.70;99707.22;4418342;32;19965;-58
2021/05/02 04:43:23;;;;;;;;;;;;;;;22.44;27.63;99709.00;4420037;32;20041;-57
2021/05/02 04:45:49;;;;;;;;;;;;;;;22.45;27.60;99705.44;4420113;32;19954;-56
2021/05/02 04:48:15;;;;;;;;;;;;;;;22.50;27.59;99712.53;4419721;32;20312;-58
2021/05/02 04:50:41;;;;;;;;;;;;;;;22.45;27.56;99716.06;4424090;32;19953;-57
2021/05/02 04:53:07;;;;;;;;;;;;;;;22.44;27.58;99722.25;4421150;32;19951;-56
2021/05/02 04:55:33;;;;;;;;;;;;;;;22.41;27.80;99724.06;4408005;32;19962;-58
2021/05/02 04:58:01;;;;;;;;;;;;;;;22.38;27.69;99727.59;4416369;32;20026;-57
2021/05/02 05:00:27;;;;;;;;;;;;;;;22.39;27.73;99726.69;4412302;32;19950;-57
2021/05/02 05:02:53;;;;;;;;;;;;;;;22.34;27.76;99717.91;4417825;32;19985;-56
2021/05/02 05:05:19;;;;;;;;;;;;;;;22.41;27.64;99735.56;4415182;32;19954;-58
2021/05/02 05:07:45;;;;;;;;;;;;;;;22.37;27.76;99738.22;4412970;32;19946;-57
2021/05/02 05:10:11;;;;;;;;;;;;;;;22.42;27.60;99745.28;4411507;32;19958;-57
2021/05/02 05:12:37;;;;;;;;;;;;;;;22.39;27.65;99742.63;4412857;32;19954;-57
2021/05/02 05:15:03;;;;;;;;;;;;;;;22.38;27.71;99754.12;4411870;32;19980;-55
2021/05/02 05:17:29;;;;;;;;;;;;;;;22.36;27.79;99747.09;4409490;32;19946;-53
2021/05/02 05:19:54;;;;;;;;;;;;;;;22.31;28.01;99750.63;4412262;32;19961;-57
2021/05/02 05:22:21;;;;;;;;;;;;;;;22.27;28.01;99758.59;4409714;32;19992;-57
2021/05/02 05:24:47;;;;;;;;;;;;;;;22.28;27.89;99760.38;4413275;32;19962;-56
2021/05/02 05:27:13;;;;;;;;;;;;;;;22.26;28.10;99767.44;4410931;32;20137;-57
2021/05/02 05:29:39;;;;;;;;;;;;;;;22.23;28.21;99771.03;4413184;32;19993;-57
2021/05/02 05:32:05;;;;;;;;;;;;;;;22.24;28.18;99772.78;4409217;32;19954;-57
2021/05/02 05:34:33;;;;;;;;;;;;;;;22.26;28.03;99775.41;4412717;32;19947;-52
2021/05/02 05:36:59;;;;;;;;;;;;;;;22.28;28.02;99782.47;4409970;32;19988;-57
2021/05/02 05:39:25;;;;;;;;;;;;;;;22.32;27.97;99788.66;4411918;32;19963;-54
2021/05/02 05:41:51;;;;;;;;;;;;;;;22.36;28.13;99790.38;4417478;32;19969;-54
2021/05/02 05:44:17;;;;;;;;;;;;;;;22.34;27.96;99792.19;4419371;32;20063;-55
2021/05/02 05:46:43;;;;;;;;;;;;;;;22.28;28.26;99797.50;4405463;32;19934;-54
2021/05/02 05:49:09;;;;;;;;;;;;;;;22.30;28.00;99806.34;4417920;32;19954;-54
2021/05/02 05:51:35;;;;;;;;;;;;;;;22.33;27.93;99801.88;4422092;32;20314;-54
2021/05/02 05:54:01;;;;;;;;;;;;;;;22.31;27.98;99802.81;4421748;32;19942;-54
2021/05/02 05:56:27;;;;;;;;;;;;;;;22.30;28.12;99803.69;4403179;32;20270;-54
2021/05/02 05:58:53;;;;;;;;;;;;;;;22.27;28.27;99796.63;4407979;32;20639;-54
2021/05/02 06:01:18;;;;;;;;;;;;;;;22.33;28.07;99801.03;4425146;32;19934;-54
2021/05/02 06:03:44;;;;;;;;;;;;;;;22.29;28.12;99815.19;4421782;32;19938;-54
2021/05/02 06:06:10;;;;;;;;;;;;;;;22.26;28.07;99808.13;4403172;32;19954;-55
2021/05/02 06:08:36;;;;;;;;;;;;;;;22.27;28.05;99811.66;4403920;32;20052;-54
2021/05/02 06:11:02;;;;;;;;;;;;;;;22.27;28.08;99822.25;4419236;32;19966;-54
2021/05/02 06:13:28;;;;;;;;;;;;;;;22.28;28.06;99824.91;4414578;32;19992;-54
2021/05/02 06:15:54;;;;;;;;;;;;;;;22.26;28.12;99821.41;4410437;32;20403;-55
2021/05/02 06:18:20;;;;;;;;;;;;;;;22.25;28.12;99816.97;4413940;32;19951;-54
2021/05/02 06:20:45;;;;;;;;;;;;;;;22.26;28.09;99821.41;4409729;32;20365;-54
2021/05/02 06:23:11;;;;;;;;;;;;;;;22.26;28.15;99823.16;4409755;32;19973;-53
2021/05/02 06:25:37;;;;;;;;;;;;;;;22.26;28.15;99836.41;4410443;32;19950;-52
2021/05/02 06:28:03;;;;;;;;;;;;;;;22.25;28.10;99829.34;4409677;32;19973;-55
2021/05/02 06:30:29;;;;;;;;;;;;;;;22.26;28.15;99825.81;4411418;32;19964;-54
2021/05/02 06:32:55;;;;;;;;;;;;;;;22.24;28.15;99832.87;4409743;32;20267;-55
2021/05/02 06:35:21;;;;;;;;;;;;;;;22.25;28.19;99830.25;4411824;32;19951;-54
2021/05/02 06:37:47;;;;;;;;;;;;;;;22.25;28.14;99838.19;4409514;32;19950;-53
2021/05/02 06:40:13;;;;;;;;;;;;;;;22.24;28.17;99838.19;4410057;32;19954;-53
2021/05/02 06:42:39;;;;;;;;;;;;;;;22.26;28.13;99841.72;4410310;32;19998;-54
2021/05/02 06:45:05;;;;;;;;;;;;;;;22.25;28.21;99832.00;4410945;32;20332;-55
2021/05/02 06:47:31;;;;;;;;;;;;;;;22.26;28.21;99844.38;4411015;32;19962;-54
2021/05/02 06:49:57;;;;;;;;;;;;;;;22.24;28.23;99848.81;4415177;32;20036;-54
2021/05/02 06:52:23;;;;;;;;;;;;;;;22.24;28.21;99847.03;4411505;32;20140;-54
2021/05/02 06:54:49;;;;;;;;;;;;;;;22.24;28.20;99847.03;4409722;32;19973;-54
2021/05/02 06:57:15;;;;;;;;;;;;;;;22.21;28.22;99851.47;4410030;32;19950;-54
2021/05/02 06:59:41;;;;;;;;;;;;;;;22.23;28.29;99855.00;4410499;32;19939;-53
2021/05/02 07:02:07;;;;;;;;;;;;;;;22.27;28.13;99851.44;4408785;32;19969;-55
2021/05/02 07:04:34;;;;;;;;;;;;;;;22.24;28.21;99860.31;4411356;32;19946;-52
2021/05/02 07:07:00;;;;;;;;;;;;;;;22.24;28.21;99864.72;4409071;32;19965;-54
2021/05/02 07:09:26;;;;;;;;;;;;;;;22.23;28.21;99863.84;4409948;32;19946;-53
2021/05/02 07:11:52;;;;;;;;;;;;;;;22.20;28.30;99869.13;4414429;32;19966;-53
2021/05/02 07:14:18;;;;;;;;;;;;;;;22.22;28.22;99869.16;4414299;32;19950;-54
2021/05/02 07:16:44;;;;;;;;;;;;;;;22.23;28.20;99878.87;4418132;32;20030;-54
2021/05/02 07:19:10;;;;;;;;;;;;;;;22.23;28.29;99884.16;4411912;32;19946;-54
2021/05/02 07:21:36;;;;;;;;;;;;;;;22.26;28.29;99881.50;4412086;32;19977;-52
2021/05/02 07:24:01;;;;;;;;;;;;;;;22.22;28.47;99883.28;4406200;32;20301;-54
2021/05/02 07:26:27;;;;;;;;;;;;;;;22.17;28.38;99880.66;4411438;32;19957;-54
2021/05/02 07:28:53;;;;;;;;;;;;;;;22.24;28.40;99880.63;4403411;32;19989;-54
2021/05/02 07:31:19;;;;;;;;;;;;;;;22.26;28.19;99878.84;4409596;32;19950;-52
2021/05/02 07:33:45;;;;;;;;;;;;;;;22.26;28.25;99884.16;4416204;32;19968;-51
2021/05/02 07:36:11;;;;;;;;;;;;;;;21.74;28.08;99886.94;4413154;32;19958;-53
2021/05/02 07:38:37;;;;;;;;;;;;;;;21.76;28.63;99885.16;4410694;32;20020;-50
2021/05/02 07:41:03;;;;;;;;;;;;;;;21.81;28.58;99882.50;4409246;32;20000;-50
2021/05/02 07:43:29;;;;;;;;;;;;;;;21.86;28.55;99896.63;4407243;32;19989;-49
2021/05/02 07:45:55;;;;;;;;;;;;;;;22.08;28.29;99904.53;4408659;32;19952;-50
2021/05/02 07:48:21;;;;;;;;;;;;;;;22.15;28.33;99898.31;4409230;32;19958;-51
2021/05/02 07:50:46;;;;;;;;;;;;;;;22.07;28.46;99905.44;4405517;32;19958;-48
2021/05/02 07:53:12;;;;;;;;;;;;;;;22.18;28.48;99903.63;4407364;32;20281;-51
2021/05/02 07:55:38;;;;;;;;;;;;;;;22.27;28.39;99901.81;4415025;32;20327;-47
2021/05/02 07:58:04;;;;;;;;;;;;;;;22.20;28.59;99903.63;4413212;32;20099;-51
2021/05/02 08:00:30;;;;;;;;;;;;;;;22.30;28.76;99896.53;4410937;32;19994;-47
2021/05/02 08:02:56;;;;;;;;;;;;;;;22.22;28.90;99898.31;4418089;32;19982;-50
2021/05/02 08:05:22;;;;;;;;;;;;;;;22.27;28.46;99896.53;4411847;32;20052;-53
2021/05/02 08:07:48;;;;;;;;;;;;;;;22.23;28.64;99910.69;4412555;32;19954;-49
2021/05/02 08:10:14;;;;;;;;;;;;;;;22.26;28.59;99906.25;4409453;32;19986;-52
2021/05/02 08:12:40;;;;;;;;;;;;;;;22.29;28.56;99910.69;4414623;32;19958;-51
2021/05/02 08:15:06;;;;;;;;;;;;;;;22.30;28.42;99901.84;4412786;32;19973;-49
2021/05/02 08:17:32;;;;;;;;;;;;;;;22.30;28.41;99912.44;4414910;32;20014;-50
2021/05/02 08:19:58;;;;;;;;;;;;;;;22.33;28.36;99917.75;4408080;32;19983;-50
2021/05/02 08:22:24;;;;;;;;;;;;;;;22.32;28.47;99915.97;4400001;32;19961;-52
2021/05/02 08:24:50;;;;;;;;;;;;;;;22.31;28.39;99919.53;4419401;32;19995;-47
2021/05/02 08:27:16;;;;;;;;;;;;;;;22.35;28.32;99921.25;4422892;32;19942;-54
2021/05/02 08:29:42;;;;;;;;;;;;;;;22.30;28.75;99918.63;4421040;32;19981;-52
2021/05/02 08:32:07;;;;;;;;;;;;;;;22.27;28.77;99917.75;4425411;32;19950;-51
2021/05/02 08:34:33;;;;;;;;;;;;;;;22.29;28.66;99908.91;4417889;32;20013;-52
2021/05/02 08:36:59;;;;;;;;;;;;;;;22.30;28.56;99912.44;4418577;32;19972;-49
2021/05/02 08:39:25;;;;;;;;;;;;;;;22.36;28.47;99920.38;4411957;32;19969;-51
2021/05/02 08:41:51;;;;;;;;;;;;;;;22.35;28.72;99921.25;4410978;32;19989;-53
2021/05/02 08:44:17;;;;;;;;;;;;;;;22.38;28.62;99925.69;4413495;32;20291;-51
2021/05/02 08:46:43;;;;;;;;;;;;;;;22.36;28.57;99930.97;4419850;32;19993;-53
2021/05/02 08:49:09;;;;;;;;;;;;;;;22.38;28.75;99931.00;4415784;32;20059;-53
2021/05/02 08:51:35;;;;;;;;;;;;;;;22.41;28.68;99930.97;4408305;32;20025;-51
2021/05/02 08:54:01;;;;;;;;;;;;;;;22.35;28.71;99931.87;4409284;32;19962;-53
2021/05/02 08:56:27;;;;;;;;;;;;;;;22.35;29.15;99936.28;4415508;32;19985;-53
2021/05/02 08:58:53;;;;;;;;;;;;;;;22.28;28.84;99935.41;4414811;32;19962;-51
2021/05/02 09:01:19;;;;;;;;;;;;;;;22.33;28.58;99938.97;4416550;32;20382;-52
2021/05/02 09:03:45;;;;;;;;;;;;;;;22.37;28.54;99942.50;4413468;32;19954;-53
2021/05/02 09:06:11;;;;;;;;;;;;;;;22.35;28.54;99931.87;4416468;32;19987;-52
2021/05/02 09:08:37;;;;;;;;;;;;;;;22.35;28.54;99934.53;4415929;32;19950;-53
2021/05/02 09:11:03;;;;;;;;;;;;;;;22.34;28.84;99938.06;4408665;32;20019;-52
2021/05/02 09:13:29;;;;;;;;;;;;;;;22.28;28.68;99938.97;4414249;32;19955;-54
2021/05/02 09:15:56;;;;;;;;;;;;;;;22.37;28.51;99927.44;4412763;32;20006;-53
2021/05/02 09:18:23;;;;;;;;;;;;;;;22.42;28.42;99933.63;4413547;32;20430;-50
2021/05/02 09:20:53;;;;;;;;;;;;;;;22.41;28.41;99929.22;4409022;32;19954;-54
2021/05/02 09:23:19;;;;;;;;;;;;;;;22.42;28.37;99933.63;4411056;32;20045;-51
2021/05/02 09:25:45;;;;;;;;;;;;;;;22.46;28.36;99934.47;4412829;32;21390;-53
2021/05/02 09:28:11;;;;;;;;;;;;;;;22.48;28.32;99938.06;4414256;32;19954;-51
2021/05/02 09:30:38;;;;;;;;;;;;;;;22.51;28.24;99945.13;4412861;32;19977;-52
2021/05/02 09:33:04;;;;;;;;;;;;;;;22.53;28.20;99943.34;4408625;32;19946;-53
2021/05/02 09:35:30;;;;;;;;;;;;;;;22.51;28.15;99937.16;4411097;32;20054;-53
2021/05/02 09:37:56;;;;;;;;;;;;;;;22.51;28.21;99939.81;4409489;32;19991;-51
2021/05/02 09:40:22;;;;;;;;;;;;;;;22.51;28.26;99938.06;4408972;32;20472;-51
2021/05/02 09:42:49;;;;;;;;;;;;;;;22.50;28.27;99936.28;4419239;32;19954;-51
2021/05/02 09:45:15;;;;;;;;;;;;;;;22.53;28.26;99940.69;4410444;32;19968;-51
2021/05/02 09:47:42;;;;;;;;;;;;;;;22.52;28.31;99955.75;4412140;32;19976;-50
2021/05/02 09:50:08;;;;;;;;;;;;;;;22.54;28.16;99963.69;4409818;32;19995;-50
2021/05/02 09:52:34;;;;;;;;;;;;;;;22.50;28.26;99960.16;4407077;32;20020;-47
2021/05/02 09:55:00;;;;;;;;;;;;;;;22.46;28.33;99971.63;4413071;32;19962;-48
2021/05/02 09:57:26;;;;;;;;;;;;;;;22.45;28.39;99965.44;4413536;32;19958;-52
2021/05/02 09:59:52;;;;;;;;;;;;;;;22.50;28.36;99972.53;4413986;32;19957;-53
2021/05/02 10:02:20;;;;;;;;;;;;;;;22.54;28.30;99971.66;4415633;32;20030;-51
2021/05/02 10:04:51;;;;;;;;;;;;;;;22.52;28.40;99984.91;4413747;32;19958;-52
2021/05/02 10:07:17;;;;;;;;;;;;;;;22.49;28.47;99981.38;4411063;32;20010;-52
2021/05/02 10:09:43;;;;;;;;;;;;;;;22.48;28.56;99975.22;4414127;32;19938;-52
2021/05/02 10:12:09;;;;;;;;;;;;;;;22.51;28.56;99974.31;4407341;32;19982;-53
2021/05/02 10:14:35;;;;;;;;;;;;;;;22.46;28.62;99976.94;4412382;32;19966;-52
2021/05/02 10:17:01;;;;;;;;;;;;;;;22.46;28.69;99975.19;4411367;32;20286;-51
2021/05/02 10:19:27;;;;;;;;;;;;;;;22.44;28.83;99978.72;4409803;32;19993;-51
2021/05/02 10:21:53;;;;;;;;;;;;;;;22.43;28.66;99977.84;4410722;32;19950;-51
2021/05/02 10:24:18;;;;;;;;;;;;;;;22.43;28.77;99977.84;4408922;32;19979;-53
2021/05/02 10:26:45;;;;;;;;;;;;;;;22.40;28.83;99975.19;4414446;32;19950;-53
2021/05/02 10:29:11;;;;;;;;;;;;;;;22.41;28.76;99979.63;4415890;32;19965;-51
2021/05/02 10:31:41;;;;;;;;;;;;;;;22.40;28.75;99982.28;4411731;32;19976;-52
2021/05/02 10:34:07;;;;;;;;;;;;;;;22.40;29.00;99987.56;4424372;32;20355;-52
2021/05/02 10:36:34;;;;;;;;;;;;;;;22.48;28.80;99980.53;4424039;32;19970;-48
2021/05/02 10:39:00;;;;;;;;;;;;;;;22.54;28.81;99984.94;4420156;32;19954;-54
2021/05/02 10:41:26;;;;;;;;;;;;;;;22.51;29.02;99984.91;4419320;32;20386;-49
2021/05/02 10:43:52;;;;;;;;;;;;;;;22.58;28.96;99981.38;4425893;32;19949;-52
2021/05/02 10:46:18;;;;;;;;;;;;;;;22.56;28.88;99983.16;4424387;32;19954;-48
2021/05/02 10:48:44;;;;;;;;;;;;;;;22.56;28.90;99989.31;4425528;32;19968;-51
2021/05/02 10:51:10;;;;;;;;;;;;;;;22.51;28.93;100000.84;4424887;32;20053;-52
2021/05/02 10:53:36;;;;;;;;;;;;;;;22.57;28.92;100001.69;4425648;32;19945;-52
2021/05/02 10:56:06;;;;;;;;;;;;;;;22.55;28.97;100002.63;4423416;32;19938;-49
2021/05/02 10:58:32;;;;;;;;;;;;;;;22.55;28.95;100007.91;4424839;32;19977;-52
2021/05/02 11:00:59;;;;;;;;;;;;;;;22.45;29.04;100010.56;4426735;32;19988;-51
2021/05/02 11:03:25;;;;;;;;;;;;;;;22.51;28.95;100014.09;4426048;32;19934;-53
2021/05/02 11:05:51;;;;;;;;;;;;;;;22.45;29.00;100013.22;4422754;32;20692;-54
2021/05/02 11:08:17;;;;;;;;;;;;;;;22.45;29.14;100013.22;4425657;32;19986;-52
2021/05/02 11:10:43;;;;;;;;;;;;;;;22.46;29.23;100008.78;4431217;32;19972;-53
2021/05/02 11:13:09;;;;;;;;;;;;;;;22.50;29.45;100021.19;4427769;32;20271;-51
2021/05/02 11:15:37;;;;;;;;;;;;;;;22.60;29.09;100024.69;4418444;32;19950;-53
2021/05/02 11:18:03;;;;;;;;;;;;;;;22.63;29.13;100037.97;4424335;32;19976;-53
2021/05/02 11:20:29;;;;;;;;;;;;;;;22.68;29.03;100030.87;4422062;32;19949;-53
2021/05/02 11:22:54;;;;;;;;;;;;;;;22.59;29.08;100042.41;4423122;32;20254;-53
2021/05/02 11:25:21;;;;;;;;;;;;;;;22.56;29.15;100042.41;4426481;32;19954;-53
2021/05/02 11:27:51;;;;;;;;;;;;;;;22.60;28.88;100035.31;4420927;32;19988;-53
2021/05/02 11:30:17;;;;;;;;;;;;;;;22.54;29.16;100027.37;4421424;32;19969;-53
2021/05/02 11:32:43;;;;;;;;;;;;;;;22.50;29.26;100030.91;4431397;32;19950;-51
2021/05/02 11:35:09;;;;;;;;;;;;;;;22.66;29.07;100032.66;4420272;32;20022;-50
2021/05/02 11:37:35;;;;;;;;;;;;;;;22.76;28.90;100032.63;4418249;32;19950;-50
2021/05/02 11:40:01;;;;;;;;;;;;;;;22.84;28.84;100041.44;4425857;32;20272;-52
2021/05/02 11:42:27;;;;;;;;;;;;;;;22.83;28.82;100047.66;4425177;32;19982;-52
2021/05/02 11:44:53;;;;;;;;;;;;;;;22.74;28.94;100046.78;4422637;32;19958;-49
2021/05/02 11:47:19;;;;;;;;;;;;;;;22.82;28.79;100048.53;4415321;32;19954;-50
2021/05/02 11:49:45;;;;;;;;;;;;;;;22.83;28.81;100058.25;4422505;32;19976;-49
2021/05/02 11:52:11;;;;;;;;;;;;;;;22.83;28.85;100048.50;4415178;32;20979;-48
2021/05/02 11:54:37;;;;;;;;;;;;;;;22.82;28.84;100059.16;4419648;32;19990;-52
2021/05/02 11:57:03;;;;;;;;;;;;;;;22.81;28.93;100046.78;4430310;32;19964;-52
2021/05/02 11:59:28;;;;;;;;;;;;;;;22.81;29.05;100054.75;4428397;32;19996;-51
2021/05/02 12:01:54;;;;;;;;;;;;;;;22.86;28.89;100056.50;4416396;32;19971;-51
2021/05/02 12:04:22;;;;;;;;;;;;;;;22.85;28.73;100048.53;4415266;32;20301;-51
2021/05/02 12:06:48;;;;;;;;;;;;;;;22.90;28.80;100061.78;4430644;32;20342;-52
2021/05/02 12:09:14;;;;;;;;;;;;;;;22.85;28.79;100070.66;4428867;32;20064;-50
2021/05/02 12:11:41;;;;;;;;;;;;;;;22.77;28.84;100066.22;4415436;32;19954;-52
2021/05/02 12:14:06;;;;;;;;;;;;;;;22.84;28.74;100065.34;4415404;32;19985;-53
2021/05/02 12:16:32;;;;;;;;;;;;;;;22.80;28.87;100066.25;4428936;32;20369;-50
2021/05/02 12:19:00;;;;;;;;;;;;;;;22.80;28.96;100060.94;4429696;32;19962;-51
2021/05/02 12:21:27;;;;;;;;;;;;;;;22.79;28.98;100065.34;4417003;32;19950;-50
2021/05/02 12:23:53;;;;;;;;;;;;;;;22.73;28.60;100068.91;4415320;32;19954;-53
2021/05/02 12:26:19;;;;;;;;;;;;;;;22.69;28.72;100064.50;4425297;32;19968;-46
2021/05/02 12:28:46;;;;;;;;;;;;;;;22.85;28.76;100069.75;4430534;32;19962;-51
2021/05/02 12:31:12;;;;;;;;;;;;;;;22.96;28.63;100070.63;4420069;32;19958;-51
2021/05/02 12:33:39;;;;;;;;;;;;;;;22.87;28.68;100065.31;4415427;32;19950;-49
2021/05/02 12:36:05;;;;;;;;;;;;;;;22.92;28.67;100060.91;4422860;32;19958;-50
2021/05/02 12:38:31;;;;;;;;;;;;;;;22.83;28.63;100072.41;4430334;32;19954;-50